sensor_id;sensor_type;location;lat;lon;timestamp;temperature;humidity
5334;DHT22;2689;50.954;7.116;2023-10-31T00:00:42;12.60;99.90
5334;DHT22;2689;50.954;7.116;2023-10-31T00:03:08;12.60;99.90
5334;DHT22;2689;50.954;7.116;2023-10-31T00:05:37;12.60;99.90
5334;DHT22;2689;50.954;7.116;2023-10-31T00:08:04;12.60;99.90
5334;DHT22;2689;50.954;7.116;2023-10-31T00:10:31;12.60;99.90
5334;DHT22;2689;50.954;7.116;2023-10-31T00:13:00;12.60;99.90
5334;DHT22;2689;50.954;7.116;2023-10-31T00:15:27;12.60;99.90
5334;DHT22;2689;50.954;7.116;2023-10-31T00:17:56;12.60;99.90
5334;DHT22;2689;50.954;7.116;2023-10-31T00:20:25;12.60;99.90
5334;DHT22;2689;50.954;7.116;2023-10-31T00:22:54;12.60;99.90
5334;DHT22;2689;50.954;7.116;2023-10-31T00:25:20;12.60;99.90
5334;DHT22;2689;50.954;7.116;2023-10-31T00:27:47;12.50;99.90
5334;DHT22;2689;50.954;7.116;2023-10-31T00:30:14;12.50;99.90
5334;DHT22;2689;50.954;7.116;2023-10-31T00:32:41;12.50;99.90
5334;DHT22;2689;50.954;7.116;2023-10-31T00:35:08;12.50;99.90
5334;DHT22;2689;50.954;7.116;2023-10-31T00:37:37;12.50;99.90
5334;DHT22;2689;50.954;7.116;2023-10-31T00:40:09;12.60;99.90
5334;DHT22;2689;50.954;7.116;2023-10-31T00:42:36;12.60;99.90
5334;DHT22;2689;50.954;7.116;2023-10-31T00:45:04;12.50;99.90
5334;DHT22;2689;50.954;7.116;2023-10-31T00:47:31;12.50;99.90
5334;DHT22;2689;50.954;7.116;2023-10-31T00:49:57;12.50;99.90
5334;DHT22;2689;50.954;7.116;2023-10-31T00:52:24;12.50;99.90
5334;DHT22;2689;50.954;7.116;2023-10-31T00:54:51;12.50;99.90
5334;DHT22;2689;50.954;7.116;2023-10-31T00:57:19;12.50;99.90
5334;DHT22;2689;50.954;7.116;2023-10-31T00:59:45;12.50;99.90
5334;DHT22;2689;50.954;7.116;2023-10-31T01:02:13;12.50;99.90
5334;DHT22;2689;50.954;7.116;2023-10-31T01:04:39;12.40;99.90
5334;DHT22;2689;50.954;7.116;2023-10-31T01:07:06;12.40;99.90
5334;DHT22;2689;50.954;7.116;2023-10-31T01:09:37;12.30;99.90
5334;DHT22;2689;50.954;7.116;2023-10-31T01:12:04;12.20;99.90
5334;DHT22;2689;50.954;7.116;2023-10-31T01:14:32;12.20;99.90
5334;DHT22;2689;50.954;7.116;2023-10-31T01:17:00;12.20;99.90
5334;DHT22;2689;50.954;7.116;2023-10-31T01:19:27;12.20;99.90
5334;DHT22;2689;50.954;7.116;2023-10-31T01:21:53;12.10;99.90
5334;DHT22;2689;50.954;7.116;2023-10-31T01:24:20;12.10;99.90
5334;DHT22;2689;50.954;7.116;2023-10-31T01:26:49;12.10;99.90
5334;DHT22;2689;50.954;7.116;2023-10-31T01:29:16;12.10;99.90
5334;DHT22;2689;50.954;7.116;2023-10-31T01:31:44;12.10;99.90
5334;DHT22;2689;50.954;7.116;2023-10-31T01:34:11;12.00;99.90
5334;DHT22;2689;50.954;7.116;2023-10-31T01:36:37;11.90;99.90
5334;DHT22;2689;50.954;7.116;2023-10-31T01:39:04;11.90;99.90
5334;DHT22;2689;50.954;7.116;2023-10-31T01:41:31;11.90;99.90
5334;DHT22;2689;50.954;7.116;2023-10-31T01:43:57;11.90;99.90
5334;DHT22;2689;50.954;7.116;2023-10-31T01:46:24;11.80;99.90
5334;DHT22;2689;50.954;7.116;2023-10-31T01:48:53;11.80;99.90
5334;DHT22;2689;50.954;7.116;2023-10-31T01:51:22;11.80;99.90
5334;DHT22;2689;50.954;7.116;2023-10-31T01:53:49;11.80;99.90
5334;DHT22;2689;50.954;7.116;2023-10-31T01:56:16;11.70;99.90
5334;DHT22;2689;50.954;7.116;2023-10-31T01:58:43;11.80;99.90
5334;DHT22;2689;50.954;7.116;2023-10-31T02:01:09;11.70;99.90
5334;DHT22;2689;50.954;7.116;2023-10-31T02:03:36;11.70;99.90
5334;DHT22;2689;50.954;7.116;2023-10-31T02:06:05;11.70;99.90
5334;DHT22;2689;50.954;7.116;2023-10-31T02:08:32;11.70;99.90
5334;DHT22;2689;50.954;7.116;2023-10-31T02:10:59;11.70;99.90
5334;DHT22;2689;50.954;7.116;2023-10-31T02:13:26;11.70;99.90
5334;DHT22;2689;50.954;7.116;2023-10-31T02:15:53;11.60;99.90
5334;DHT22;2689;50.954;7.116;2023-10-31T02:18:19;11.60;99.90
5334;DHT22;2689;50.954;7.116;2023-10-31T02:20:48;11.60;99.90
5334;DHT22;2689;50.954;7.116;2023-10-31T02:23:20;11.60;99.90
5334;DHT22;2689;50.954;7.116;2023-10-31T02:25:55;11.60;99.90
5334;DHT22;2689;50.954;7.116;2023-10-31T02:28:21;11.70;99.90
5334;DHT22;2689;50.954;7.116;2023-10-31T02:30:53;11.70;99.90
5334;DHT22;2689;50.954;7.116;2023-10-31T02:33:19;11.70;99.90
5334;DHT22;2689;50.954;7.116;2023-10-31T02:35:46;11.70;99.90
5334;DHT22;2689;50.954;7.116;2023-10-31T02:38:13;11.60;99.90
5334;DHT22;2689;50.954;7.116;2023-10-31T02:40:41;11.70;99.90
5334;DHT22;2689;50.954;7.116;2023-10-31T02:43:08;11.60;99.90
5334;DHT22;2689;50.954;7.116;2023-10-31T02:45:35;11.70;99.90
5334;DHT22;2689;50.954;7.116;2023-10-31T02:48:02;11.70;99.90
5334;DHT22;2689;50.954;7.116;2023-10-31T02:50:28;11.70;99.90
5334;DHT22;2689;50.954;7.116;2023-10-31T02:52:55;11.70;99.90
5334;DHT22;2689;50.954;7.116;2023-10-31T02:55:22;11.70;99.90
5334;DHT22;2689;50.954;7.116;2023-10-31T02:57:50;11.60;99.90
5334;DHT22;2689;50.954;7.116;2023-10-31T03:00:17;11.60;99.90
5334;DHT22;2689;50.954;7.116;2023-10-31T03:02:44;11.60;99.90
5334;DHT22;2689;50.954;7.116;2023-10-31T03:05:11;11.60;99.90
5334;DHT22;2689;50.954;7.116;2023-10-31T03:07:38;11.70;99.90
5334;DHT22;2689;50.954;7.116;2023-10-31T03:10:06;11.70;99.90
5334;DHT22;2689;50.954;7.116;2023-10-31T03:12:33;11.70;99.90
5334;DHT22;2689;50.954;7.116;2023-10-31T03:15:02;11.70;99.90
5334;DHT22;2689;50.954;7.116;2023-10-31T03:17:29;11.70;99.90
5334;DHT22;2689;50.954;7.116;2023-10-31T03:19:55;11.60;99.90
5334;DHT22;2689;50.954;7.116;2023-10-31T03:22:22;11.70;99.90
5334;DHT22;2689;50.954;7.116;2023-10-31T03:24:51;11.70;99.90
5334;DHT22;2689;50.954;7.116;2023-10-31T03:27:19;11.70;99.90
5334;DHT22;2689;50.954;7.116;2023-10-31T03:29:46;11.70;99.90
5334;DHT22;2689;50.954;7.116;2023-10-31T03:32:14;11.80;99.90
5334;DHT22;2689;50.954;7.116;2023-10-31T03:34:41;11.80;99.90
5334;DHT22;2689;50.954;7.116;2023-10-31T03:37:08;11.80;99.90
5334;DHT22;2689;50.954;7.116;2023-10-31T03:39:36;11.90;99.90
5334;DHT22;2689;50.954;7.116;2023-10-31T03:42:03;11.90;99.90
5334;DHT22;2689;50.954;7.116;2023-10-31T03:44:31;11.90;99.90
5334;DHT22;2689;50.954;7.116;2023-10-31T03:46:58;11.90;99.90
5334;DHT22;2689;50.954;7.116;2023-10-31T03:49:26;11.80;99.90
5334;DHT22;2689;50.954;7.116;2023-10-31T03:51:52;11.80;99.90
5334;DHT22;2689;50.954;7.116;2023-10-31T03:54:19;11.90;99.90
5334;DHT22;2689;50.954;7.116;2023-10-31T03:56:46;11.80;99.90
5334;DHT22;2689;50.954;7.116;2023-10-31T03:59:14;11.80;99.90
5334;DHT22;2689;50.954;7.116;2023-10-31T04:01:40;11.70;99.90
5334;DHT22;2689;50.954;7.116;2023-10-31T04:04:07;11.70;99.90
5334;DHT22;2689;50.954;7.116;2023-10-31T04:06:36;11.60;99.90
5334;DHT22;2689;50.954;7.116;2023-10-31T04:09:06;11.60;99.90
5334;DHT22;2689;50.954;7.116;2023-10-31T04:11:33;11.60;99.90
5334;DHT22;2689;50.954;7.116;2023-10-31T04:14:00;11.60;99.90
5334;DHT22;2689;50.954;7.116;2023-10-31T04:16:27;11.70;99.90
5334;DHT22;2689;50.954;7.116;2023-10-31T04:18:54;11.70;99.90
5334;DHT22;2689;50.954;7.116;2023-10-31T04:21:21;11.70;99.90
5334;DHT22;2689;50.954;7.116;2023-10-31T04:23:49;11.70;99.90
5334;DHT22;2689;50.954;7.116;2023-10-31T04:26:16;11.70;99.90
5334;DHT22;2689;50.954;7.116;2023-10-31T04:28:44;11.70;99.90
5334;DHT22;2689;50.954;7.116;2023-10-31T04:31:10;11.70;99.90
5334;DHT22;2689;50.954;7.116;2023-10-31T04:33:37;11.70;99.90
5334;DHT22;2689;50.954;7.116;2023-10-31T04:36:04;11.80;99.90
5334;DHT22;2689;50.954;7.116;2023-10-31T04:38:31;11.80;99.90
5334;DHT22;2689;50.954;7.116;2023-10-31T04:40:59;11.70;99.90
5334;DHT22;2689;50.954;7.116;2023-10-31T04:43:26;11.70;99.90
5334;DHT22;2689;50.954;7.116;2023-10-31T04:45:53;11.80;99.90
5334;DHT22;2689;50.954;7.116;2023-10-31T04:48:19;11.80;99.90
5334;DHT22;2689;50.954;7.116;2023-10-31T04:50:49;11.90;99.90
5334;DHT22;2689;50.954;7.116;2023-10-31T04:53:15;11.80;99.90
5334;DHT22;2689;50.954;7.116;2023-10-31T04:55:42;11.70;99.90
5334;DHT22;2689;50.954;7.116;2023-10-31T04:58:13;11.70;99.90
5334;DHT22;2689;50.954;7.116;2023-10-31T05:00:40;11.70;99.90
5334;DHT22;2689;50.954;7.116;2023-10-31T05:03:06;11.70;99.90
5334;DHT22;2689;50.954;7.116;2023-10-31T05:05:33;11.70;99.90
5334;DHT22;2689;50.954;7.116;2023-10-31T05:08:00;11.70;99.90
5334;DHT22;2689;50.954;7.116;2023-10-31T05:10:27;11.70;99.90
5334;DHT22;2689;50.954;7.116;2023-10-31T05:12:53;11.80;99.90
5334;DHT22;2689;50.954;7.116;2023-10-31T05:15:21;11.80;99.90
5334;DHT22;2689;50.954;7.116;2023-10-31T05:17:48;11.80;99.90
5334;DHT22;2689;50.954;7.116;2023-10-31T05:20:15;11.90;99.90
5334;DHT22;2689;50.954;7.116;2023-10-31T05:22:42;11.90;99.90
5334;DHT22;2689;50.954;7.116;2023-10-31T05:25:08;11.90;99.90
5334;DHT22;2689;50.954;7.116;2023-10-31T05:27:35;11.90;99.90
5334;DHT22;2689;50.954;7.116;2023-10-31T05:30:02;11.90;99.90
5334;DHT22;2689;50.954;7.116;2023-10-31T05:32:30;11.80;99.90
5334;DHT22;2689;50.954;7.116;2023-10-31T05:34:57;11.90;99.90
5334;DHT22;2689;50.954;7.116;2023-10-31T05:37:24;11.90;99.90
5334;DHT22;2689;50.954;7.116;2023-10-31T05:39:51;11.90;99.90
5334;DHT22;2689;50.954;7.116;2023-10-31T05:42:17;11.90;99.90
5334;DHT22;2689;50.954;7.116;2023-10-31T05:44:46;11.90;99.90
5334;DHT22;2689;50.954;7.116;2023-10-31T05:47:13;11.90;99.90
5334;DHT22;2689;50.954;7.116;2023-10-31T05:49:44;11.90;99.90
5334;DHT22;2689;50.954;7.116;2023-10-31T05:52:11;11.80;99.90
5334;DHT22;2689;50.954;7.116;2023-10-31T05:54:38;11.90;99.90
5334;DHT22;2689;50.954;7.116;2023-10-31T05:57:06;11.90;99.90
5334;DHT22;2689;50.954;7.116;2023-10-31T05:59:34;11.90;99.90
5334;DHT22;2689;50.954;7.116;2023-10-31T06:02:01;11.90;99.90
5334;DHT22;2689;50.954;7.116;2023-10-31T06:04:28;12.00;99.90
5334;DHT22;2689;50.954;7.116;2023-10-31T06:06:56;12.00;99.90
5334;DHT22;2689;50.954;7.116;2023-10-31T06:09:23;12.00;99.90
5334;DHT22;2689;50.954;7.116;2023-10-31T06:11:49;11.90;99.90
5334;DHT22;2689;50.954;7.116;2023-10-31T06:14:16;11.90;99.90
5334;DHT22;2689;50.954;7.116;2023-10-31T06:16:43;11.90;99.90
5334;DHT22;2689;50.954;7.116;2023-10-31T06:19:10;11.90;99.90
5334;DHT22;2689;50.954;7.116;2023-10-31T06:21:37;12.00;99.90
5334;DHT22;2689;50.954;7.116;2023-10-31T06:24:07;11.90;99.90
5334;DHT22;2689;50.954;7.116;2023-10-31T06:26:34;11.80;99.90
5334;DHT22;2689;50.954;7.116;2023-10-31T06:29:01;11.90;99.90
5334;DHT22;2689;50.954;7.116;2023-10-31T06:31:27;11.80;99.90
5334;DHT22;2689;50.954;7.116;2023-10-31T06:33:54;11.80;99.90
5334;DHT22;2689;50.954;7.116;2023-10-31T06:36:21;11.80;99.90
5334;DHT22;2689;50.954;7.116;2023-10-31T06:38:48;11.80;99.90
5334;DHT22;2689;50.954;7.116;2023-10-31T06:41:16;11.80;99.90
5334;DHT22;2689;50.954;7.116;2023-10-31T06:43:43;11.80;99.90
5334;DHT22;2689;50.954;7.116;2023-10-31T06:46:09;11.80;99.90
5334;DHT22;2689;50.954;7.116;2023-10-31T06:48:36;11.80;99.90
5334;DHT22;2689;50.954;7.116;2023-10-31T06:51:03;11.80;99.90
5334;DHT22;2689;50.954;7.116;2023-10-31T06:53:30;11.80;99.90
5334;DHT22;2689;50.954;7.116;2023-10-31T06:55:57;11.80;99.90
5334;DHT22;2689;50.954;7.116;2023-10-31T06:58:27;11.90;99.90
5334;DHT22;2689;50.954;7.116;2023-10-31T07:00:54;11.80;99.90
5334;DHT22;2689;50.954;7.116;2023-10-31T07:03:23;11.80;99.90
5334;DHT22;2689;50.954;7.116;2023-10-31T07:05:50;11.80;99.90
5334;DHT22;2689;50.954;7.116;2023-10-31T07:08:18;11.90;99.90
5334;DHT22;2689;50.954;7.116;2023-10-31T07:10:44;11.80;99.90
5334;DHT22;2689;50.954;7.116;2023-10-31T07:13:11;11.90;99.90
5334;DHT22;2689;50.954;7.116;2023-10-31T07:15:40;11.90;99.90
5334;DHT22;2689;50.954;7.116;2023-10-31T07:18:06;11.90;99.90
5334;DHT22;2689;50.954;7.116;2023-10-31T07:20:33;11.90;99.90
5334;DHT22;2689;50.954;7.116;2023-10-31T07:23:00;11.90;99.90
5334;DHT22;2689;50.954;7.116;2023-10-31T07:25:27;12.00;99.90
5334;DHT22;2689;50.954;7.116;2023-10-31T07:27:54;11.90;99.90
5334;DHT22;2689;50.954;7.116;2023-10-31T07:30:21;11.90;99.90
5334;DHT22;2689;50.954;7.116;2023-10-31T07:32:49;11.90;99.90
5334;DHT22;2689;50.954;7.116;2023-10-31T07:35:16;11.90;99.90
5334;DHT22;2689;50.954;7.116;2023-10-31T07:37:44;11.90;99.90
5334;DHT22;2689;50.954;7.116;2023-10-31T07:40:12;11.90;99.90
5334;DHT22;2689;50.954;7.116;2023-10-31T07:42:38;11.90;99.90
5334;DHT22;2689;50.954;7.116;2023-10-31T07:45:06;11.90;99.90
5334;DHT22;2689;50.954;7.116;2023-10-31T07:47:33;11.90;99.90
5334;DHT22;2689;50.954;7.116;2023-10-31T07:50:01;11.90;99.90
5334;DHT22;2689;50.954;7.116;2023-10-31T07:52:28;11.90;99.90
5334;DHT22;2689;50.954;7.116;2023-10-31T07:54:54;11.90;99.90
5334;DHT22;2689;50.954;7.116;2023-10-31T07:57:21;12.00;99.90
5334;DHT22;2689;50.954;7.116;2023-10-31T07:59:48;12.00;99.90
5334;DHT22;2689;50.954;7.116;2023-10-31T08:02:15;12.00;99.90
5334;DHT22;2689;50.954;7.116;2023-10-31T08:04:41;12.00;99.90
5334;DHT22;2689;50.954;7.116;2023-10-31T08:07:09;12.10;99.90
5334;DHT22;2689;50.954;7.116;2023-10-31T08:09:36;12.10;99.90
5334;DHT22;2689;50.954;7.116;2023-10-31T08:12:03;12.10;99.90
5334;DHT22;2689;50.954;7.116;2023-10-31T08:14:30;12.20;99.90
5334;DHT22;2689;50.954;7.116;2023-10-31T08:16:57;12.20;99.90
5334;DHT22;2689;50.954;7.116;2023-10-31T08:19:23;12.30;99.90
5334;DHT22;2689;50.954;7.116;2023-10-31T08:21:50;12.30;99.90
5334;DHT22;2689;50.954;7.116;2023-10-31T08:24:19;12.30;99.90
5334;DHT22;2689;50.954;7.116;2023-10-31T08:26:46;12.30;99.90
5334;DHT22;2689;50.954;7.116;2023-10-31T08:29:12;12.30;99.90
5334;DHT22;2689;50.954;7.116;2023-10-31T08:31:39;12.30;99.90
5334;DHT22;2689;50.954;7.116;2023-10-31T08:34:06;12.40;99.90
5334;DHT22;2689;50.954;7.116;2023-10-31T08:36:33;12.40;99.90
5334;DHT22;2689;50.954;7.116;2023-10-31T08:38:59;12.50;99.90
5334;DHT22;2689;50.954;7.116;2023-10-31T08:41:27;12.50;99.90
5334;DHT22;2689;50.954;7.116;2023-10-31T08:43:54;12.40;99.90
5334;DHT22;2689;50.954;7.116;2023-10-31T08:46:23;12.50;99.90
5334;DHT22;2689;50.954;7.116;2023-10-31T08:48:50;12.50;99.90
5334;DHT22;2689;50.954;7.116;2023-10-31T08:51:19;12.60;99.90
5334;DHT22;2689;50.954;7.116;2023-10-31T08:53:46;12.60;99.90
5334;DHT22;2689;50.954;7.116;2023-10-31T08:56:13;12.60;99.90
5334;DHT22;2689;50.954;7.116;2023-10-31T08:58:41;12.70;99.90
5334;DHT22;2689;50.954;7.116;2023-10-31T09:01:07;12.70;99.90
5334;DHT22;2689;50.954;7.116;2023-10-31T09:03:34;12.70;99.90
5334;DHT22;2689;50.954;7.116;2023-10-31T09:06:03;12.70;99.90
5334;DHT22;2689;50.954;7.116;2023-10-31T09:08:31;12.70;99.90
5334;DHT22;2689;50.954;7.116;2023-10-31T09:10:59;12.80;99.90
5334;DHT22;2689;50.954;7.116;2023-10-31T09:13:27;12.90;99.90
5334;DHT22;2689;50.954;7.116;2023-10-31T09:15:55;12.90;99.90
5334;DHT22;2689;50.954;7.116;2023-10-31T09:18:22;13.00;99.90
5334;DHT22;2689;50.954;7.116;2023-10-31T09:20:49;13.00;99.90
5334;DHT22;2689;50.954;7.116;2023-10-31T09:23:16;12.90;99.90
5334;DHT22;2689;50.954;7.116;2023-10-31T09:25:43;12.90;99.90
5334;DHT22;2689;50.954;7.116;2023-10-31T09:28:10;13.00;99.90
5334;DHT22;2689;50.954;7.116;2023-10-31T09:30:37;13.10;99.90
5334;DHT22;2689;50.954;7.116;2023-10-31T09:33:05;13.00;99.90
5334;DHT22;2689;50.954;7.116;2023-10-31T09:35:31;13.00;99.90
5334;DHT22;2689;50.954;7.116;2023-10-31T09:37:58;12.70;99.90
5334;DHT22;2689;50.954;7.116;2023-10-31T09:40:25;12.80;99.90
5334;DHT22;2689;50.954;7.116;2023-10-31T09:42:52;12.90;99.90
5334;DHT22;2689;50.954;7.116;2023-10-31T09:45:19;12.80;99.90
5334;DHT22;2689;50.954;7.116;2023-10-31T09:47:45;12.90;99.90
5334;DHT22;2689;50.954;7.116;2023-10-31T09:50:14;12.80;99.90
5334;DHT22;2689;50.954;7.116;2023-10-31T09:52:40;12.90;99.90
5334;DHT22;2689;50.954;7.116;2023-10-31T09:55:08;12.90;99.90
5334;DHT22;2689;50.954;7.116;2023-10-31T09:57:35;12.90;99.90
5334;DHT22;2689;50.954;7.116;2023-10-31T10:00:01;12.90;99.90
5334;DHT22;2689;50.954;7.116;2023-10-31T10:02:28;13.00;99.90
5334;DHT22;2689;50.954;7.116;2023-10-31T10:04:55;13.00;99.90
5334;DHT22;2689;50.954;7.116;2023-10-31T10:07:23;13.10;99.90
5334;DHT22;2689;50.954;7.116;2023-10-31T10:09:50;13.10;99.90
5334;DHT22;2689;50.954;7.116;2023-10-31T10:12:17;13.00;99.90
5334;DHT22;2689;50.954;7.116;2023-10-31T10:14:45;13.10;99.90
5334;DHT22;2689;50.954;7.116;2023-10-31T10:17:15;13.10;99.90
5334;DHT22;2689;50.954;7.116;2023-10-31T10:19:42;13.20;99.90
5334;DHT22;2689;50.954;7.116;2023-10-31T10:22:09;13.30;99.90
5334;DHT22;2689;50.954;7.116;2023-10-31T10:24:41;13.30;99.90
5334;DHT22;2689;50.954;7.116;2023-10-31T10:27:08;13.50;99.90
5334;DHT22;2689;50.954;7.116;2023-10-31T10:29:35;13.60;99.90
5334;DHT22;2689;50.954;7.116;2023-10-31T10:32:05;13.70;99.90
5334;DHT22;2689;50.954;7.116;2023-10-31T10:34:33;13.80;99.90
5334;DHT22;2689;50.954;7.116;2023-10-31T10:37:01;13.80;99.90
5334;DHT22;2689;50.954;7.116;2023-10-31T10:39:33;13.80;99.90
5334;DHT22;2689;50.954;7.116;2023-10-31T10:42:06;13.80;99.90
5334;DHT22;2689;50.954;7.116;2023-10-31T10:44:36;13.70;99.90
5334;DHT22;2689;50.954;7.116;2023-10-31T10:47:05;13.80;99.90
5334;DHT22;2689;50.954;7.116;2023-10-31T10:49:33;13.90;99.90
5334;DHT22;2689;50.954;7.116;2023-10-31T10:52:11;14.10;99.90
5334;DHT22;2689;50.954;7.116;2023-10-31T10:54:45;14.30;99.90
5334;DHT22;2689;50.954;7.116;2023-10-31T10:57:21;14.60;99.80
5334;DHT22;2689;50.954;7.116;2023-10-31T10:59:52;14.80;99.70
5334;DHT22;2689;50.954;7.116;2023-10-31T11:02:21;14.90;98.80
5334;DHT22;2689;50.954;7.116;2023-10-31T11:04:48;14.90;98.40
5334;DHT22;2689;50.954;7.116;2023-10-31T11:07:18;15.00;98.20
5334;DHT22;2689;50.954;7.116;2023-10-31T11:09:47;15.00;97.80
5334;DHT22;2689;50.954;7.116;2023-10-31T11:12:18;14.70;96.80
5334;DHT22;2689;50.954;7.116;2023-10-31T11:14:48;14.70;97.60
5334;DHT22;2689;50.954;7.116;2023-10-31T11:17:23;14.70;97.40
5334;DHT22;2689;50.954;7.116;2023-10-31T11:19:50;14.60;97.40
5334;DHT22;2689;50.954;7.116;2023-10-31T11:22:18;14.70;97.60
5334;DHT22;2689;50.954;7.116;2023-10-31T11:24:45;14.60;98.20
5334;DHT22;2689;50.954;7.116;2023-10-31T11:27:12;14.60;97.50
5334;DHT22;2689;50.954;7.116;2023-10-31T11:29:40;14.50;97.00
5334;DHT22;2689;50.954;7.116;2023-10-31T11:32:08;14.50;97.10
5334;DHT22;2689;50.954;7.116;2023-10-31T11:34:37;14.40;98.00
5334;DHT22;2689;50.954;7.116;2023-10-31T11:37:24;14.50;97.80
5334;DHT22;2689;50.954;7.116;2023-10-31T11:40:20;14.50;97.20
5334;DHT22;2689;50.954;7.116;2023-10-31T11:42:49;14.40;96.90
5334;DHT22;2689;50.954;7.116;2023-10-31T11:45:41;14.40;97.10
5334;DHT22;2689;50.954;7.116;2023-10-31T11:48:10;14.40;96.90
5334;DHT22;2689;50.954;7.116;2023-10-31T11:50:38;14.40;96.90
5334;DHT22;2689;50.954;7.116;2023-10-31T11:53:06;14.50;96.70
5334;DHT22;2689;50.954;7.116;2023-10-31T11:55:35;14.60;96.90
5334;DHT22;2689;50.954;7.116;2023-10-31T11:58:16;14.70;96.80
5334;DHT22;2689;50.954;7.116;2023-10-31T12:00:44;14.80;96.80
5334;DHT22;2689;50.954;7.116;2023-10-31T12:03:11;14.80;96.40
5334;DHT22;2689;50.954;7.116;2023-10-31T12:05:38;15.00;96.50
5334;DHT22;2689;50.954;7.116;2023-10-31T12:08:05;15.00;96.20
5334;DHT22;2689;50.954;7.116;2023-10-31T12:10:32;15.00;96.50
5334;DHT22;2689;50.954;7.116;2023-10-31T12:12:59;15.10;96.10
5334;DHT22;2689;50.954;7.116;2023-10-31T12:15:25;14.80;95.70
5334;DHT22;2689;50.954;7.116;2023-10-31T12:17:57;14.90;95.80
5334;DHT22;2689;50.954;7.116;2023-10-31T12:20:25;14.90;95.70
5334;DHT22;2689;50.954;7.116;2023-10-31T12:23:02;14.90;95.70
5334;DHT22;2689;50.954;7.116;2023-10-31T12:25:30;15.00;95.60
5334;DHT22;2689;50.954;7.116;2023-10-31T12:28:01;15.00;95.20
5334;DHT22;2689;50.954;7.116;2023-10-31T12:30:27;15.10;95.30
5334;DHT22;2689;50.954;7.116;2023-10-31T12:32:56;15.10;95.50
5334;DHT22;2689;50.954;7.116;2023-10-31T12:35:24;15.10;95.60
5334;DHT22;2689;50.954;7.116;2023-10-31T12:37:52;15.20;95.50
5334;DHT22;2689;50.954;7.116;2023-10-31T12:40:20;15.30;95.30
5334;DHT22;2689;50.954;7.116;2023-10-31T12:42:48;15.30;95.00
5334;DHT22;2689;50.954;7.116;2023-10-31T12:45:16;15.30;94.90
5334;DHT22;2689;50.954;7.116;2023-10-31T12:47:44;15.30;95.10
5334;DHT22;2689;50.954;7.116;2023-10-31T12:50:14;15.40;95.10
5334;DHT22;2689;50.954;7.116;2023-10-31T12:52:49;15.20;94.80
5334;DHT22;2689;50.954;7.116;2023-10-31T12:55:21;15.20;95.10
5334;DHT22;2689;50.954;7.116;2023-10-31T12:57:48;15.20;95.00
5334;DHT22;2689;50.954;7.116;2023-10-31T13:00:17;15.20;95.30
5334;DHT22;2689;50.954;7.116;2023-10-31T13:02:50;15.30;95.60
5334;DHT22;2689;50.954;7.116;2023-10-31T13:05:19;15.40;95.30
5334;DHT22;2689;50.954;7.116;2023-10-31T13:07:49;15.30;94.90
5334;DHT22;2689;50.954;7.116;2023-10-31T13:10:18;15.40;95.30
5334;DHT22;2689;50.954;7.116;2023-10-31T13:12:45;15.40;95.20
5334;DHT22;2689;50.954;7.116;2023-10-31T13:15:13;15.50;95.70
5334;DHT22;2689;50.954;7.116;2023-10-31T13:17:40;15.50;95.10
5334;DHT22;2689;50.954;7.116;2023-10-31T13:20:10;15.80;95.10
5334;DHT22;2689;50.954;7.116;2023-10-31T13:22:39;15.80;94.70
5334;DHT22;2689;50.954;7.116;2023-10-31T13:25:08;15.80;94.10
5334;DHT22;2689;50.954;7.116;2023-10-31T13:27:37;15.80;93.90
5334;DHT22;2689;50.954;7.116;2023-10-31T13:30:05;15.70;94.40
5334;DHT22;2689;50.954;7.116;2023-10-31T13:32:32;15.70;94.80
5334;DHT22;2689;50.954;7.116;2023-10-31T13:34:59;15.80;94.10
5334;DHT22;2689;50.954;7.116;2023-10-31T13:37:26;15.70;93.90
5334;DHT22;2689;50.954;7.116;2023-10-31T13:39:54;15.50;94.00
5334;DHT22;2689;50.954;7.116;2023-10-31T13:42:21;15.40;94.80
5334;DHT22;2689;50.954;7.116;2023-10-31T13:44:47;15.50;94.80
5334;DHT22;2689;50.954;7.116;2023-10-31T13:47:14;15.60;94.20
5334;DHT22;2689;50.954;7.116;2023-10-31T13:49:41;15.70;94.10
5334;DHT22;2689;50.954;7.116;2023-10-31T13:52:08;15.70;93.90
5334;DHT22;2689;50.954;7.116;2023-10-31T13:54:34;15.80;93.80
5334;DHT22;2689;50.954;7.116;2023-10-31T13:57:03;15.80;93.90
5334;DHT22;2689;50.954;7.116;2023-10-31T13:59:30;16.00;93.80
5334;DHT22;2689;50.954;7.116;2023-10-31T14:01:57;16.10;93.50
5334;DHT22;2689;50.954;7.116;2023-10-31T14:04:24;16.10;93.50
5334;DHT22;2689;50.954;7.116;2023-10-31T14:06:50;16.00;93.30
5334;DHT22;2689;50.954;7.116;2023-10-31T14:09:17;15.90;93.20
5334;DHT22;2689;50.954;7.116;2023-10-31T14:11:44;15.80;93.40
5334;DHT22;2689;50.954;7.116;2023-10-31T14:14:12;16.00;92.70
5334;DHT22;2689;50.954;7.116;2023-10-31T14:16:40;16.10;93.80
5334;DHT22;2689;50.954;7.116;2023-10-31T14:19:07;16.40;92.60
5334;DHT22;2689;50.954;7.116;2023-10-31T14:21:34;16.70;92.10
5334;DHT22;2689;50.954;7.116;2023-10-31T14:24:01;17.00;92.00
5334;DHT22;2689;50.954;7.116;2023-10-31T14:26:29;17.10;90.40
5334;DHT22;2689;50.954;7.116;2023-10-31T14:28:58;16.80;90.50
5334;DHT22;2689;50.954;7.116;2023-10-31T14:31:26;16.40;90.90
5334;DHT22;2689;50.954;7.116;2023-10-31T14:33:53;16.20;91.50
5334;DHT22;2689;50.954;7.116;2023-10-31T14:36:20;16.00;91.90
5334;DHT22;2689;50.954;7.116;2023-10-31T14:38:49;15.80;92.60
5334;DHT22;2689;50.954;7.116;2023-10-31T14:41:15;15.70;92.90
5334;DHT22;2689;50.954;7.116;2023-10-31T14:43:42;15.80;92.80
5334;DHT22;2689;50.954;7.116;2023-10-31T14:46:09;15.70;92.70
5334;DHT22;2689;50.954;7.116;2023-10-31T14:48:37;15.60;93.30
5334;DHT22;2689;50.954;7.116;2023-10-31T14:51:04;15.80;94.30
5334;DHT22;2689;50.954;7.116;2023-10-31T14:53:32;15.90;94.20
5334;DHT22;2689;50.954;7.116;2023-10-31T14:55:58;15.90;93.70
5334;DHT22;2689;50.954;7.116;2023-10-31T14:58:32;16.00;93.70
5334;DHT22;2689;50.954;7.116;2023-10-31T15:00:59;16.00;93.10
5334;DHT22;2689;50.954;7.116;2023-10-31T15:03:26;15.80;93.00
5334;DHT22;2689;50.954;7.116;2023-10-31T15:05:54;15.60;93.50
5334;DHT22;2689;50.954;7.116;2023-10-31T15:08:21;15.60;94.00
5334;DHT22;2689;50.954;7.116;2023-10-31T15:10:48;15.50;94.30
5334;DHT22;2689;50.954;7.116;2023-10-31T15:13:14;15.30;94.80
5334;DHT22;2689;50.954;7.116;2023-10-31T15:15:41;15.20;95.00
5334;DHT22;2689;50.954;7.116;2023-10-31T15:18:08;15.10;95.60
5334;DHT22;2689;50.954;7.116;2023-10-31T15:20:35;15.10;96.00
5334;DHT22;2689;50.954;7.116;2023-10-31T15:23:03;15.00;96.30
5334;DHT22;2689;50.954;7.116;2023-10-31T15:25:30;15.10;96.80
5334;DHT22;2689;50.954;7.116;2023-10-31T15:27:57;15.10;96.90
5334;DHT22;2689;50.954;7.116;2023-10-31T15:30:23;15.10;96.40
5334;DHT22;2689;50.954;7.116;2023-10-31T15:32:50;14.80;96.20
5334;DHT22;2689;50.954;7.116;2023-10-31T15:35:18;14.80;96.10
5334;DHT22;2689;50.954;7.116;2023-10-31T15:37:44;14.70;96.20
5334;DHT22;2689;50.954;7.116;2023-10-31T15:40:13;14.60;96.60
5334;DHT22;2689;50.954;7.116;2023-10-31T15:42:39;14.60;96.70
5334;DHT22;2689;50.954;7.116;2023-10-31T15:45:07;14.50;96.70
5334;DHT22;2689;50.954;7.116;2023-10-31T15:47:34;14.50;97.10
5334;DHT22;2689;50.954;7.116;2023-10-31T15:50:01;14.50;97.20
5334;DHT22;2689;50.954;7.116;2023-10-31T15:52:27;14.50;97.40
5334;DHT22;2689;50.954;7.116;2023-10-31T15:54:54;14.40;97.70
5334;DHT22;2689;50.954;7.116;2023-10-31T15:57:22;14.40;98.00
5334;DHT22;2689;50.954;7.116;2023-10-31T15:59:50;14.40;98.30
5334;DHT22;2689;50.954;7.116;2023-10-31T16:02:17;14.40;98.10
5334;DHT22;2689;50.954;7.116;2023-10-31T16:04:43;14.40;98.20